sensor_id;sensor_type;location;lat;lon;timestamp;P1;durP1;ratioP1;P2;durP2;ratioP2
39540;SDS011;25219;52.244;21.006;2022-07-30T00:00:44;9.60;;;1.63;;
39540;SDS011;25219;52.244;21.006;2022-07-30T00:03:09;3.38;;;1.40;;
39540;SDS011;25219;52.244;21.006;2022-07-30T00:05:34;2.27;;;1.20;;
39540;SDS011;25219;52.244;21.006;2022-07-30T00:08:00;3.95;;;1.13;;
39540;SDS011;25219;52.244;21.006;2022-07-30T00:10:25;2.80;;;1.00;;
39540;SDS011;25219;52.244;21.006;2022-07-30T00:12:50;4.67;;;1.43;;
39540;SDS011;25219;52.244;21.006;2022-07-30T00:15:15;2.43;;;1.10;;
39540;SDS011;25219;52.244;21.006;2022-07-30T00:17:40;1.23;;;0.80;;
39540;SDS011;25219;52.244;21.006;2022-07-30T00:20:06;4.50;;;0.97;;
39540;SDS011;25219;52.244;21.006;2022-07-30T00:22:31;3.15;;;1.20;;
39540;SDS011;25219;52.244;21.006;2022-07-30T00:24:56;1.20;;;0.90;;
39540;SDS011;25219;52.244;21.006;2022-07-30T00:27:21;1.88;;;1.20;;
39540;SDS011;25219;52.244;21.006;2022-07-30T00:29:47;4.00;;;0.93;;
39540;SDS011;25219;52.244;21.006;2022-07-30T00:32:12;9.77;;;2.90;;
39540;SDS011;25219;52.244;21.006;2022-07-30T00:34:37;2.03;;;1.10;;
39540;SDS011;25219;52.244;21.006;2022-07-30T00:37:02;3.00;;;1.17;;
39540;SDS011;25219;52.244;21.006;2022-07-30T00:39:27;1.40;;;1.00;;
39540;SDS011;25219;52.244;21.006;2022-07-30T00:41:55;2.80;;;1.10;;
39540;SDS011;25219;52.244;21.006;2022-07-30T00:44:20;2.42;;;1.33;;
39540;SDS011;25219;52.244;21.006;2022-07-30T00:46:45;1.17;;;1.00;;
39540;SDS011;25219;52.244;21.006;2022-07-30T00:49:10;6.30;;;1.60;;
39540;SDS011;25219;52.244;21.006;2022-07-30T00:51:35;5.60;;;1.37;;
39540;SDS011;25219;52.244;21.006;2022-07-30T00:54:01;2.33;;;1.13;;
39540;SDS011;25219;52.244;21.006;2022-07-30T00:56:26;4.53;;;1.15;;
39540;SDS011;25219;52.244;21.006;2022-07-30T00:58:51;4.17;;;1.17;;
39540;SDS011;25219;52.244;21.006;2022-07-30T01:01:16;3.40;;;1.33;;
39540;SDS011;25219;52.244;21.006;2022-07-30T01:03:42;3.20;;;1.42;;
39540;SDS011;25219;52.244;21.006;2022-07-30T01:06:07;3.20;;;1.63;;
39540;SDS011;25219;52.244;21.006;2022-07-30T01:08:32;2.20;;;1.10;;
39540;SDS011;25219;52.244;21.006;2022-07-30T01:10:57;2.87;;;1.37;;
39540;SDS011;25219;52.244;21.006;2022-07-30T01:13:22;3.97;;;0.83;;
39540;SDS011;25219;52.244;21.006;2022-07-30T01:15:47;1.48;;;1.05;;
39540;SDS011;25219;52.244;21.006;2022-07-30T01:18:13;3.73;;;1.07;;
39540;SDS011;25219;52.244;21.006;2022-07-30T01:23:09;1.90;;;0.98;;
39540;SDS011;25219;52.244;21.006;2022-07-30T01:25:44;5.03;;;1.20;;
39540;SDS011;25219;52.244;21.006;2022-07-30T01:28:12;6.25;;;1.23;;
39540;SDS011;25219;52.244;21.006;2022-07-30T01:30:40;2.63;;;1.13;;
39540;SDS011;25219;52.244;21.006;2022-07-30T01:33:06;1.35;;;0.98;;
39540;SDS011;25219;52.244;21.006;2022-07-30T01:35:34;3.08;;;1.00;;
39540;SDS011;25219;52.244;21.006;2022-07-30T01:38:00;2.20;;;1.00;;
39540;SDS011;25219;52.244;21.006;2022-07-30T01:40:27;4.40;;;1.23;;
39540;SDS011;25219;52.244;21.006;2022-07-30T01:42:52;4.22;;;1.33;;
39540;SDS011;25219;52.244;21.006;2022-07-30T01:45:19;2.63;;;1.10;;
39540;SDS011;25219;52.244;21.006;2022-07-30T01:47:46;5.22;;;1.10;;
39540;SDS011;25219;52.244;21.006;2022-07-30T01:50:11;2.30;;;1.20;;
39540;SDS011;25219;52.244;21.006;2022-07-30T01:52:38;5.55;;;1.35;;
39540;SDS011;25219;52.244;21.006;2022-07-30T01:55:04;6.05;;;1.20;;
39540;SDS011;25219;52.244;21.006;2022-07-30T01:57:30;3.58;;;1.27;;
39540;SDS011;25219;52.244;21.006;2022-07-30T01:59:57;2.78;;;1.00;;
39540;SDS011;25219;52.244;21.006;2022-07-30T02:02:24;2.78;;;1.38;;
39540;SDS011;25219;52.244;21.006;2022-07-30T02:04:49;2.93;;;1.43;;
39540;SDS011;25219;52.244;21.006;2022-07-30T02:10:00;3.13;;;1.25;;
39540;SDS011;25219;52.244;21.006;2022-07-30T02:12:27;1.40;;;0.95;;
39540;SDS011;25219;52.244;21.006;2022-07-30T02:17:35;2.00;;;1.20;;
39540;SDS011;25219;52.244;21.006;2022-07-30T02:20:01;4.82;;;1.00;;
39540;SDS011;25219;52.244;21.006;2022-07-30T02:22:26;3.83;;;1.48;;
39540;SDS011;25219;52.244;21.006;2022-07-30T02:24:56;1.92;;;1.00;;
39540;SDS011;25219;52.244;21.006;2022-07-30T02:27:25;2.58;;;1.20;;
39540;SDS011;25219;52.244;21.006;2022-07-30T02:29:51;2.72;;;1.08;;
39540;SDS011;25219;52.244;21.006;2022-07-30T02:32:19;1.20;;;1.10;;
39540;SDS011;25219;52.244;21.006;2022-07-30T02:34:47;1.95;;;1.48;;
39540;SDS011;25219;52.244;21.006;2022-07-30T02:37:13;2.65;;;1.13;;
39540;SDS011;25219;52.244;21.006;2022-07-30T02:39:39;2.90;;;1.05;;
39540;SDS011;25219;52.244;21.006;2022-07-30T02:42:06;2.30;;;1.10;;
39540;SDS011;25219;52.244;21.006;2022-07-30T02:44:33;3.17;;;1.00;;
39540;SDS011;25219;52.244;21.006;2022-07-30T02:46:59;1.88;;;1.00;;
39540;SDS011;25219;52.244;21.006;2022-07-30T02:49:26;4.47;;;1.27;;
39540;SDS011;25219;52.244;21.006;2022-07-30T02:51:53;1.52;;;1.20;;
39540;SDS011;25219;52.244;21.006;2022-07-30T02:54:18;3.80;;;1.25;;
39540;SDS011;25219;52.244;21.006;2022-07-30T02:56:47;1.92;;;1.10;;
39540;SDS011;25219;52.244;21.006;2022-07-30T02:59:13;3.03;;;1.08;;
39540;SDS011;25219;52.244;21.006;2022-07-30T03:01:40;1.75;;;1.20;;
39540;SDS011;25219;52.244;21.006;2022-07-30T03:04:05;3.40;;;1.17;;
39540;SDS011;25219;52.244;21.006;2022-07-30T03:06:32;6.72;;;1.40;;
39540;SDS011;25219;52.244;21.006;2022-07-30T03:08:58;2.70;;;1.08;;
39540;SDS011;25219;52.244;21.006;2022-07-30T03:11:23;1.17;;;0.93;;
39540;SDS011;25219;52.244;21.006;2022-07-30T03:13:50;1.98;;;1.08;;
39540;SDS011;25219;52.244;21.006;2022-07-30T03:16:16;4.67;;;1.20;;
39540;SDS011;25219;52.244;21.006;2022-07-30T03:18:41;5.22;;;1.50;;
39540;SDS011;25219;52.244;21.006;2022-07-30T03:21:07;1.92;;;1.20;;
39540;SDS011;25219;52.244;21.006;2022-07-30T03:23:33;5.68;;;1.45;;
39540;SDS011;25219;52.244;21.006;2022-07-30T03:26:02;4.18;;;1.10;;
39540;SDS011;25219;52.244;21.006;2022-07-30T03:28:29;3.58;;;1.25;;
39540;SDS011;25219;52.244;21.006;2022-07-30T03:30:55;5.32;;;1.10;;
39540;SDS011;25219;52.244;21.006;2022-07-30T03:33:20;2.45;;;1.33;;
39540;SDS011;25219;52.244;21.006;2022-07-30T03:35:46;2.70;;;1.00;;
39540;SDS011;25219;52.244;21.006;2022-07-30T03:38:12;6.28;;;1.40;;
39540;SDS011;25219;52.244;21.006;2022-07-30T03:40:38;2.33;;;1.20;;
39540;SDS011;25219;52.244;21.006;2022-07-30T03:43:03;2.20;;;1.55;;
39540;SDS011;25219;52.244;21.006;2022-07-30T03:45:29;2.97;;;1.08;;
39540;SDS011;25219;52.244;21.006;2022-07-30T03:47:54;2.90;;;1.33;;
39540;SDS011;25219;52.244;21.006;2022-07-30T03:50:20;3.58;;;1.20;;
39540;SDS011;25219;52.244;21.006;2022-07-30T03:52:45;1.93;;;1.33;;
39540;SDS011;25219;52.244;21.006;2022-07-30T03:55:11;2.17;;;0.90;;
39540;SDS011;25219;52.244;21.006;2022-07-30T03:57:36;5.35;;;1.40;;
39540;SDS011;25219;52.244;21.006;2022-07-30T04:00:03;4.38;;;1.27;;
39540;SDS011;25219;52.244;21.006;2022-07-30T04:02:29;7.05;;;1.30;;
39540;SDS011;25219;52.244;21.006;2022-07-30T04:04:55;3.57;;;0.97;;
39540;SDS011;25219;52.244;21.006;2022-07-30T04:07:20;5.10;;;1.47;;
39540;SDS011;25219;52.244;21.006;2022-07-30T04:09:45;1.23;;;0.90;;
39540;SDS011;25219;52.244;21.006;2022-07-30T04:12:10;1.70;;;1.17;;
39540;SDS011;25219;52.244;21.006;2022-07-30T04:14:38;1.17;;;0.75;;
39540;SDS011;25219;52.244;21.006;2022-07-30T04:17:04;2.40;;;1.00;;
39540;SDS011;25219;52.244;21.006;2022-07-30T04:19:36;4.60;;;1.20;;
39540;SDS011;25219;52.244;21.006;2022-07-30T04:22:01;3.87;;;1.00;;
39540;SDS011;25219;52.244;21.006;2022-07-30T04:24:27;4.25;;;1.23;;
39540;SDS011;25219;52.244;21.006;2022-07-30T04:26:53;3.00;;;0.98;;
39540;SDS011;25219;52.244;21.006;2022-07-30T04:29:19;3.58;;;1.25;;
39540;SDS011;25219;52.244;21.006;2022-07-30T04:31:44;1.60;;;1.00;;
39540;SDS011;25219;52.244;21.006;2022-07-30T04:34:13;3.08;;;1.23;;
39540;SDS011;25219;52.244;21.006;2022-07-30T04:36:42;5.95;;;1.38;;
39540;SDS011;25219;52.244;21.006;2022-07-30T04:39:07;2.13;;;1.88;;
39540;SDS011;25219;52.244;21.006;2022-07-30T04:41:32;4.38;;;1.25;;
39540;SDS011;25219;52.244;21.006;2022-07-30T04:43:58;5.75;;;1.27;;
39540;SDS011;25219;52.244;21.006;2022-07-30T04:46:23;3.97;;;1.20;;
39540;SDS011;25219;52.244;21.006;2022-07-30T04:48:48;1.57;;;1.23;;
39540;SDS011;25219;52.244;21.006;2022-07-30T04:51:32;1.65;;;0.95;;
39540;SDS011;25219;52.244;21.006;2022-07-30T04:53:57;6.07;;;1.55;;
39540;SDS011;25219;52.244;21.006;2022-07-30T04:56:23;2.67;;;1.20;;
39540;SDS011;25219;52.244;21.006;2022-07-30T04:58:49;2.28;;;1.17;;
39540;SDS011;25219;52.244;21.006;2022-07-30T05:01:16;6.20;;;2.50;;
39540;SDS011;25219;52.244;21.006;2022-07-30T05:03:42;3.35;;;1.30;;
39540;SDS011;25219;52.244;21.006;2022-07-30T05:06:08;3.05;;;1.20;;
39540;SDS011;25219;52.244;21.006;2022-07-30T05:08:35;3.03;;;1.23;;
39540;SDS011;25219;52.244;21.006;2022-07-30T05:11:00;2.40;;;1.10;;
39540;SDS011;25219;52.244;21.006;2022-07-30T05:13:25;2.17;;;1.08;;
39540;SDS011;25219;52.244;21.006;2022-07-30T05:15:51;1.92;;;1.23;;
39540;SDS011;25219;52.244;21.006;2022-07-30T05:18:16;2.65;;;1.30;;
39540;SDS011;25219;52.244;21.006;2022-07-30T05:20:41;5.47;;;1.20;;
39540;SDS011;25219;52.244;21.006;2022-07-30T05:23:07;5.67;;;1.13;;
39540;SDS011;25219;52.244;21.006;2022-07-30T05:25:32;2.00;;;1.20;;
39540;SDS011;25219;52.244;21.006;2022-07-30T05:27:57;1.63;;;1.10;;
39540;SDS011;25219;52.244;21.006;2022-07-30T05:30:23;3.43;;;0.97;;
39540;SDS011;25219;52.244;21.006;2022-07-30T05:32:48;3.42;;;0.95;;
39540;SDS011;25219;52.244;21.006;2022-07-30T05:35:13;6.27;;;1.40;;
39540;SDS011;25219;52.244;21.006;2022-07-30T05:37:38;13.73;;;1.60;;
39540;SDS011;25219;52.244;21.006;2022-07-30T05:40:04;2.15;;;1.00;;
39540;SDS011;25219;52.244;21.006;2022-07-30T05:42:29;7.97;;;1.20;;
39540;SDS011;25219;52.244;21.006;2022-07-30T05:44:54;3.33;;;1.50;;
39540;SDS011;25219;52.244;21.006;2022-07-30T05:47:19;2.47;;;1.00;;
39540;SDS011;25219;52.244;21.006;2022-07-30T05:49:45;3.25;;;1.73;;
39540;SDS011;25219;52.244;21.006;2022-07-30T05:52:10;6.57;;;1.30;;
39540;SDS011;25219;52.244;21.006;2022-07-30T05:54:35;5.27;;;1.47;;
39540;SDS011;25219;52.244;21.006;2022-07-30T05:57:00;3.93;;;1.30;;
39540;SDS011;25219;52.244;21.006;2022-07-30T05:59:25;14.48;;;3.40;;
39540;SDS011;25219;52.244;21.006;2022-07-30T06:01:51;4.60;;;1.25;;
39540;SDS011;25219;52.244;21.006;2022-07-30T06:04:16;4.75;;;1.95;;
39540;SDS011;25219;52.244;21.006;2022-07-30T06:06:41;5.85;;;1.63;;
39540;SDS011;25219;52.244;21.006;2022-07-30T06:09:07;10.50;;;1.60;;
39540;SDS011;25219;52.244;21.006;2022-07-30T06:11:32;2.70;;;1.37;;
39540;SDS011;25219;52.244;21.006;2022-07-30T06:13:57;3.67;;;1.33;;
39540;SDS011;25219;52.244;21.006;2022-07-30T06:16:22;5.13;;;1.23;;
39540;SDS011;25219;52.244;21.006;2022-07-30T06:18:47;7.23;;;1.20;;
39540;SDS011;25219;52.244;21.006;2022-07-30T06:21:12;2.53;;;1.60;;
39540;SDS011;25219;52.244;21.006;2022-07-30T06:23:38;3.90;;;2.25;;
39540;SDS011;25219;52.244;21.006;2022-07-30T06:26:03;3.03;;;1.65;;
39540;SDS011;25219;52.244;21.006;2022-07-30T06:28:28;8.47;;;1.43;;
39540;SDS011;25219;52.244;21.006;2022-07-30T06:30:54;3.38;;;1.13;;
39540;SDS011;25219;52.244;21.006;2022-07-30T06:33:19;3.45;;;1.10;;
39540;SDS011;25219;52.244;21.006;2022-07-30T06:35:44;2.80;;;1.50;;
39540;SDS011;25219;52.244;21.006;2022-07-30T06:38:09;6.87;;;1.40;;
39540;SDS011;25219;52.244;21.006;2022-07-30T06:40:34;2.10;;;1.47;;
39540;SDS011;25219;52.244;21.006;2022-07-30T06:42:59;3.30;;;1.40;;
39540;SDS011;25219;52.244;21.006;2022-07-30T06:45:25;3.23;;;1.50;;
39540;SDS011;25219;52.244;21.006;2022-07-30T06:47:50;4.97;;;1.47;;
39540;SDS011;25219;52.244;21.006;2022-07-30T06:50:15;1.73;;;1.30;;
39540;SDS011;25219;52.244;21.006;2022-07-30T06:52:42;2.97;;;1.85;;
39540;SDS011;25219;52.244;21.006;2022-07-30T06:55:08;4.17;;;1.20;;
39540;SDS011;25219;52.244;21.006;2022-07-30T06:57:33;1.83;;;1.07;;
39540;SDS011;25219;52.244;21.006;2022-07-30T06:59:58;4.55;;;1.08;;
39540;SDS011;25219;52.244;21.006;2022-07-30T07:02:23;3.38;;;1.40;;
39540;SDS011;25219;52.244;21.006;2022-07-30T07:04:49;1.73;;;1.10;;
39540;SDS011;25219;52.244;21.006;2022-07-30T07:07:14;3.83;;;1.40;;
39540;SDS011;25219;52.244;21.006;2022-07-30T07:09:39;4.30;;;1.57;;
39540;SDS011;25219;52.244;21.006;2022-07-30T07:12:04;5.75;;;2.80;;
39540;SDS011;25219;52.244;21.006;2022-07-30T07:14:29;8.05;;;3.42;;
39540;SDS011;25219;52.244;21.006;2022-07-30T07:16:55;2.23;;;1.20;;
39540;SDS011;25219;52.244;21.006;2022-07-30T07:19:20;3.83;;;1.73;;
39540;SDS011;25219;52.244;21.006;2022-07-30T07:21:45;2.13;;;1.47;;
39540;SDS011;25219;52.244;21.006;2022-07-30T07:24:10;4.80;;;1.70;;
39540;SDS011;25219;52.244;21.006;2022-07-30T07:26:35;2.47;;;1.50;;
39540;SDS011;25219;52.244;21.006;2022-07-30T07:29:01;4.70;;;1.83;;
39540;SDS011;25219;52.244;21.006;2022-07-30T07:31:26;3.40;;;1.63;;
39540;SDS011;25219;52.244;21.006;2022-07-30T07:33:51;4.78;;;1.80;;
39540;SDS011;25219;52.244;21.006;2022-07-30T07:36:19;2.92;;;1.45;;
39540;SDS011;25219;52.244;21.006;2022-07-30T07:38:44;2.90;;;1.63;;
39540;SDS011;25219;52.244;21.006;2022-07-30T07:41:09;3.67;;;1.52;;
39540;SDS011;25219;52.244;21.006;2022-07-30T07:43:34;4.85;;;1.63;;
39540;SDS011;25219;52.244;21.006;2022-07-30T07:45:59;3.78;;;1.55;;
39540;SDS011;25219;52.244;21.006;2022-07-30T07:48:25;6.40;;;1.70;;
39540;SDS011;25219;52.244;21.006;2022-07-30T07:50:50;2.00;;;1.42;;
39540;SDS011;25219;52.244;21.006;2022-07-30T07:53:15;2.07;;;1.50;;
39540;SDS011;25219;52.244;21.006;2022-07-30T07:55:40;5.93;;;1.75;;
39540;SDS011;25219;52.244;21.006;2022-07-30T07:58:05;7.43;;;1.67;;
39540;SDS011;25219;52.244;21.006;2022-07-30T08:00:30;16.30;;;3.87;;
39540;SDS011;25219;52.244;21.006;2022-07-30T08:02:56;4.07;;;1.40;;
39540;SDS011;25219;52.244;21.006;2022-07-30T08:05:21;4.57;;;1.50;;
39540;SDS011;25219;52.244;21.006;2022-07-30T08:07:46;3.35;;;1.50;;
39540;SDS011;25219;52.244;21.006;2022-07-30T08:10:12;2.73;;;1.97;;
39540;SDS011;25219;52.244;21.006;2022-07-30T08:12:39;3.70;;;1.92;;
39540;SDS011;25219;52.244;21.006;2022-07-30T08:15:05;2.70;;;1.30;;
39540;SDS011;25219;52.244;21.006;2022-07-30T08:17:31;8.82;;;3.10;;
39540;SDS011;25219;52.244;21.006;2022-07-30T08:19:59;2.65;;;1.60;;
39540;SDS011;25219;52.244;21.006;2022-07-30T08:22:24;5.18;;;2.13;;
39540;SDS011;25219;52.244;21.006;2022-07-30T08:24:50;3.63;;;1.60;;
39540;SDS011;25219;52.244;21.006;2022-07-30T08:27:16;2.67;;;1.47;;
39540;SDS011;25219;52.244;21.006;2022-07-30T08:29:41;4.68;;;1.65;;
39540;SDS011;25219;52.244;21.006;2022-07-30T08:32:06;4.10;;;1.80;;
39540;SDS011;25219;52.244;21.006;2022-07-30T08:34:31;9.00;;;2.00;;
39540;SDS011;25219;52.244;21.006;2022-07-30T08:36:56;6.47;;;1.60;;
39540;SDS011;25219;52.244;21.006;2022-07-30T08:39:22;4.00;;;1.90;;
39540;SDS011;25219;52.244;21.006;2022-07-30T08:41:47;2.38;;;1.40;;
39540;SDS011;25219;52.244;21.006;2022-07-30T08:44:12;6.30;;;2.42;;
39540;SDS011;25219;52.244;21.006;2022-07-30T08:46:40;1.88;;;1.60;;
39540;SDS011;25219;52.244;21.006;2022-07-30T08:49:06;4.25;;;1.50;;
39540;SDS011;25219;52.244;21.006;2022-07-30T08:51:32;3.85;;;1.63;;
39540;SDS011;25219;52.244;21.006;2022-07-30T08:53:57;4.25;;;1.20;;
39540;SDS011;25219;52.244;21.006;2022-07-30T08:56:24;2.60;;;1.75;;
39540;SDS011;25219;52.244;21.006;2022-07-30T08:58:50;3.53;;;1.60;;
39540;SDS011;25219;52.244;21.006;2022-07-30T09:01:15;2.93;;;1.40;;
39540;SDS011;25219;52.244;21.006;2022-07-30T09:03:40;10.70;;;1.93;;
39540;SDS011;25219;52.244;21.006;2022-07-30T09:06:05;2.92;;;1.60;;
39540;SDS011;25219;52.244;21.006;2022-07-30T09:08:31;2.67;;;1.50;;
39540;SDS011;25219;52.244;21.006;2022-07-30T09:10:56;3.33;;;1.52;;
39540;SDS011;25219;52.244;21.006;2022-07-30T09:13:25;4.00;;;1.80;;
39540;SDS011;25219;52.244;21.006;2022-07-30T09:15:51;2.25;;;1.60;;
39540;SDS011;25219;52.244;21.006;2022-07-30T09:23:39;3.33;;;1.55;;
39540;SDS011;25219;52.244;21.006;2022-07-30T09:26:04;3.33;;;1.50;;
39540;SDS011;25219;52.244;21.006;2022-07-30T09:28:30;4.97;;;1.60;;
39540;SDS011;25219;52.244;21.006;2022-07-30T09:30:56;11.73;;;1.73;;
39540;SDS011;25219;52.244;21.006;2022-07-30T09:33:40;4.57;;;1.77;;
39540;SDS011;25219;52.244;21.006;2022-07-30T09:36:07;2.28;;;1.60;;
39540;SDS011;25219;52.244;21.006;2022-07-30T09:41:09;4.20;;;1.88;;
39540;SDS011;25219;52.244;21.006;2022-07-30T09:43:45;2.45;;;1.45;;
39540;SDS011;25219;52.244;21.006;2022-07-30T09:46:10;2.78;;;1.33;;
39540;SDS011;25219;52.244;21.006;2022-07-30T09:48:36;7.28;;;1.65;;
39540;SDS011;25219;52.244;21.006;2022-07-30T09:51:01;1.77;;;1.48;;
39540;SDS011;25219;52.244;21.006;2022-07-30T09:53:26;2.60;;;1.60;;
39540;SDS011;25219;52.244;21.006;2022-07-30T09:55:51;5.20;;;1.73;;
39540;SDS011;25219;52.244;21.006;2022-07-30T09:58:17;2.40;;;1.55;;
39540;SDS011;25219;52.244;21.006;2022-07-30T10:00:42;3.67;;;1.53;;
39540;SDS011;25219;52.244;21.006;2022-07-30T10:03:20;2.63;;;1.70;;
39540;SDS011;25219;52.244;21.006;2022-07-30T10:06:03;2.80;;;1.52;;
39540;SDS011;25219;52.244;21.006;2022-07-30T10:11:03;4.05;;;1.50;;
39540;SDS011;25219;52.244;21.006;2022-07-30T10:13:28;4.28;;;1.80;;
39540;SDS011;25219;52.244;21.006;2022-07-30T10:15:53;2.97;;;1.27;;
39540;SDS011;25219;52.244;21.006;2022-07-30T10:18:18;5.43;;;1.70;;
39540;SDS011;25219;52.244;21.006;2022-07-30T10:20:44;4.03;;;1.50;;
39540;SDS011;25219;52.244;21.006;2022-07-30T10:23:09;4.93;;;1.83;;
39540;SDS011;25219;52.244;21.006;2022-07-30T10:25:35;6.22;;;1.60;;
39540;SDS011;25219;52.244;21.006;2022-07-30T10:28:00;2.28;;;1.38;;
39540;SDS011;25219;52.244;21.006;2022-07-30T10:30:26;6.38;;;2.17;;
39540;SDS011;25219;52.244;21.006;2022-07-30T10:32:52;5.53;;;1.20;;
39540;SDS011;25219;52.244;21.006;2022-07-30T10:35:17;2.78;;;1.77;;
39540;SDS011;25219;52.244;21.006;2022-07-30T10:37:44;4.43;;;1.83;;
39540;SDS011;25219;52.244;21.006;2022-07-30T10:40:20;3.95;;;1.58;;
39540;SDS011;25219;52.244;21.006;2022-07-30T10:47:51;6.53;;;1.50;;
39540;SDS011;25219;52.244;21.006;2022-07-30T10:50:18;5.20;;;2.05;;
39540;SDS011;25219;52.244;21.006;2022-07-30T10:52:48;4.57;;;1.98;;
39540;SDS011;25219;52.244;21.006;2022-07-30T10:55:17;4.18;;;1.85;;
39540;SDS011;25219;52.244;21.006;2022-07-30T10:57:55;2.70;;;1.90;;
39540;SDS011;25219;52.244;21.006;2022-07-30T11:00:20;2.47;;;1.63;;
39540;SDS011;25219;52.244;21.006;2022-07-30T11:03:09;1.60;;;1.50;;
39540;SDS011;25219;52.244;21.006;2022-07-30T11:05:31;5.25;;;2.00;;
39540;SDS011;25219;52.244;21.006;2022-07-30T11:07:56;6.30;;;2.80;;
39540;SDS011;25219;52.244;21.006;2022-07-30T11:10:41;6.70;;;2.00;;
39540;SDS011;25219;52.244;21.006;2022-07-30T11:13:07;4.60;;;1.90;;
39540;SDS011;25219;52.244;21.006;2022-07-30T11:18:17;10.70;;;2.20;;
39540;SDS011;25219;52.244;21.006;2022-07-30T11:20:42;3.30;;;2.40;;
39540;SDS011;25219;52.244;21.006;2022-07-30T11:25:52;1.85;;;1.55;;
39540;SDS011;25219;52.244;21.006;2022-07-30T11:28:32;4.70;;;2.30;;
39540;SDS011;25219;52.244;21.006;2022-07-30T11:30:57;4.38;;;1.98;;
39540;SDS011;25219;52.244;21.006;2022-07-30T11:33:22;3.90;;;1.93;;
39540;SDS011;25219;52.244;21.006;2022-07-30T11:36:03;4.00;;;2.28;;
39540;SDS011;25219;52.244;21.006;2022-07-30T11:38:29;3.70;;;2.55;;
39540;SDS011;25219;52.244;21.006;2022-07-30T11:41:14;6.57;;;3.20;;
39540;SDS011;25219;52.244;21.006;2022-07-30T11:43:39;8.32;;;2.97;;
39540;SDS011;25219;52.244;21.006;2022-07-30T11:51:02;11.68;;;3.58;;
39540;SDS011;25219;52.244;21.006;2022-07-30T11:53:27;13.68;;;5.22;;
39540;SDS011;25219;52.244;21.006;2022-07-30T11:55:54;12.17;;;5.10;;
39540;SDS011;25219;52.244;21.006;2022-07-30T11:58:34;8.65;;;3.60;;
39540;SDS011;25219;52.244;21.006;2022-07-30T12:01:02;8.07;;;3.60;;
39540;SDS011;25219;52.244;21.006;2022-07-30T12:03:28;10.13;;;3.92;;
39540;SDS011;25219;52.244;21.006;2022-07-30T12:05:55;9.13;;;3.55;;
39540;SDS011;25219;52.244;21.006;2022-07-30T12:08:21;11.68;;;3.80;;
39540;SDS011;25219;52.244;21.006;2022-07-30T12:10:56;4.87;;;3.00;;
39540;SDS011;25219;52.244;21.006;2022-07-30T12:13:22;7.32;;;3.40;;
39540;SDS011;25219;52.244;21.006;2022-07-30T12:15:47;7.80;;;3.20;;
39540;SDS011;25219;52.244;21.006;2022-07-30T12:18:13;6.20;;;3.13;;
39540;SDS011;25219;52.244;21.006;2022-07-30T12:20:51;5.90;;;2.20;;
39540;SDS011;25219;52.244;21.006;2022-07-30T12:23:17;4.13;;;2.75;;
39540;SDS011;25219;52.244;21.006;2022-07-30T12:25:42;5.30;;;2.87;;
39540;SDS011;25219;52.244;21.006;2022-07-30T12:28:08;4.60;;;2.80;;
39540;SDS011;25219;52.244;21.006;2022-07-30T12:30:34;5.75;;;3.00;;
39540;SDS011;25219;52.244;21.006;2022-07-30T12:33:01;5.22;;;2.38;;
39540;SDS011;25219;52.244;21.006;2022-07-30T12:38:07;7.30;;;3.63;;
39540;SDS011;25219;52.244;21.006;2022-07-30T12:40:32;7.13;;;3.00;;
39540;SDS011;25219;52.244;21.006;2022-07-30T12:42:57;6.70;;;3.10;;
39540;SDS011;25219;52.244;21.006;2022-07-30T12:45:29;4.57;;;2.80;;
39540;SDS011;25219;52.244;21.006;2022-07-30T12:47:55;4.20;;;2.58;;
39540;SDS011;25219;52.244;21.006;2022-07-30T12:50:21;10.55;;;3.10;;
39540;SDS011;25219;52.244;21.006;2022-07-30T12:52:47;5.37;;;2.80;;
39540;SDS011;25219;52.244;21.006;2022-07-30T12:55:12;6.60;;;2.80;;
39540;SDS011;25219;52.244;21.006;2022-07-30T13:00:22;4.50;;;2.85;;
39540;SDS011;25219;52.244;21.006;2022-07-30T13:02:48;3.58;;;2.72;;
39540;SDS011;25219;52.244;21.006;2022-07-30T13:05:13;4.63;;;3.17;;
39540;SDS011;25219;52.244;21.006;2022-07-30T13:07:51;7.77;;;2.67;;
39540;SDS011;25219;52.244;21.006;2022-07-30T13:10:16;3.50;;;2.67;;
39540;SDS011;25219;52.244;21.006;2022-07-30T13:12:43;6.72;;;3.67;;
39540;SDS011;25219;52.244;21.006;2022-07-30T13:15:15;5.82;;;2.72;;
39540;SDS011;25219;52.244;21.006;2022-07-30T13:17:40;4.97;;;2.55;;
39540;SDS011;25219;52.244;21.006;2022-07-30T13:20:06;5.03;;;3.60;;
39540;SDS011;25219;52.244;21.006;2022-07-30T13:22:32;8.48;;;3.25;;
39540;SDS011;25219;52.244;21.006;2022-07-30T13:24:57;6.38;;;3.03;;
39540;SDS011;25219;52.244;21.006;2022-07-30T13:27:22;4.22;;;2.78;;
39540;SDS011;25219;52.244;21.006;2022-07-30T13:29:47;4.30;;;2.60;;
39540;SDS011;25219;52.244;21.006;2022-07-30T13:32:13;8.30;;;3.23;;
39540;SDS011;25219;52.244;21.006;2022-07-30T13:34:38;9.37;;;3.13;;
39540;SDS011;25219;52.244;21.006;2022-07-30T13:37:05;4.35;;;2.55;;
39540;SDS011;25219;52.244;21.006;2022-07-30T13:39:30;6.03;;;2.60;;
39540;SDS011;25219;52.244;21.006;2022-07-30T13:41:55;6.20;;;2.40;;
39540;SDS011;25219;52.244;21.006;2022-07-30T13:44:21;7.78;;;3.05;;
39540;SDS011;25219;52.244;21.006;2022-07-30T13:46:46;5.28;;;3.20;;
39540;SDS011;25219;52.244;21.006;2022-07-30T13:49:11;4.13;;;2.83;;
39540;SDS011;25219;52.244;21.006;2022-07-30T13:51:36;6.75;;;2.75;;
39540;SDS011;25219;52.244;21.006;2022-07-30T13:54:02;12.70;;;3.50;;
39540;SDS011;25219;52.244;21.006;2022-07-30T13:56:27;9.13;;;3.10;;
39540;SDS011;25219;52.244;21.006;2022-07-30T13:58:52;15.18;;;4.00;;
39540;SDS011;25219;52.244;21.006;2022-07-30T14:01:18;6.53;;;3.42;;
39540;SDS011;25219;52.244;21.006;2022-07-30T14:03:43;6.53;;;3.30;;
39540;SDS011;25219;52.244;21.006;2022-07-30T14:06:09;8.40;;;3.77;;
39540;SDS011;25219;52.244;21.006;2022-07-30T14:08:34;11.63;;;4.20;;
39540;SDS011;25219;52.244;21.006;2022-07-30T14:10:59;6.30;;;3.30;;
39540;SDS011;25219;52.244;21.006;2022-07-30T14:13:24;10.13;;;4.33;;
39540;SDS011;25219;52.244;21.006;2022-07-30T14:15:49;10.97;;;4.80;;
39540;SDS011;25219;52.244;21.006;2022-07-30T14:18:14;5.83;;;3.30;;
39540;SDS011;25219;52.244;21.006;2022-07-30T14:20:40;5.90;;;3.20;;
39540;SDS011;25219;52.244;21.006;2022-07-30T14:23:05;7.90;;;4.10;;
39540;SDS011;25219;52.244;21.006;2022-07-30T14:25:30;10.60;;;3.60;;
39540;SDS011;25219;52.244;21.006;2022-07-30T14:27:55;11.07;;;3.53;;
39540;SDS011;25219;52.244;21.006;2022-07-30T14:30:21;6.97;;;3.70;;
39540;SDS011;25219;52.244;21.006;2022-07-30T14:32:47;4.40;;;3.20;;
39540;SDS011;25219;52.244;21.006;2022-07-30T14:35:12;7.27;;;3.93;;
39540;SDS011;25219;52.244;21.006;2022-07-30T14:37:38;7.78;;;2.85;;
39540;SDS011;25219;52.244;21.006;2022-07-30T14:40:04;7.30;;;4.00;;
39540;SDS011;25219;52.244;21.006;2022-07-30T14:42:30;6.93;;;3.50;;
39540;SDS011;25219;52.244;21.006;2022-07-30T14:44:55;5.00;;;2.83;;
39540;SDS011;25219;52.244;21.006;2022-07-30T14:47:20;9.88;;;6.82;;
39540;SDS011;25219;52.244;21.006;2022-07-30T14:49:46;5.63;;;4.27;;
39540;SDS011;25219;52.244;21.006;2022-07-30T14:52:11;4.57;;;2.58;;
39540;SDS011;25219;52.244;21.006;2022-07-30T14:54:36;7.53;;;3.30;;
39540;SDS011;25219;52.244;21.006;2022-07-30T14:57:01;3.93;;;2.80;;
39540;SDS011;25219;52.244;21.006;2022-07-30T14:59:27;7.07;;;3.33;;
39540;SDS011;25219;52.244;21.006;2022-07-30T15:01:53;5.33;;;2.87;;
39540;SDS011;25219;52.244;21.006;2022-07-30T15:04:19;3.20;;;2.90;;
39540;SDS011;25219;52.244;21.006;2022-07-30T15:06:44;8.40;;;2.97;;